createdAt,value
2022-09-30T00:01:14.994Z,9.77
2022-09-30T00:03:41.563Z,9.82
2022-09-30T00:06:09.009Z,10.48
2022-09-30T00:08:37.155Z,11.20
2022-09-30T00:11:13.607Z,10.45
2022-09-30T00:13:40.580Z,8.95
2022-09-30T00:16:10.375Z,8.70
2022-09-30T00:18:38.144Z,8.52
2022-09-30T00:21:08.314Z,9.75
2022-09-30T00:23:37.995Z,10.68
2022-09-30T00:26:07.884Z,11.13
2022-09-30T00:28:34.743Z,10.68
2022-09-30T00:31:04.453Z,10.23
2022-09-30T00:33:31.560Z,10.25
2022-09-30T00:35:58.096Z,9.60
2022-09-30T00:38:24.817Z,10.20
2022-09-30T00:40:51.720Z,8.85
2022-09-30T00:43:38.875Z,8.93
2022-09-30T00:46:06.337Z,9.23
2022-09-30T00:48:39.728Z,8.05
2022-09-30T00:51:08.051Z,8.98
2022-09-30T00:54:00.414Z,9.38
2022-09-30T00:59:02.252Z,9.30
2022-09-30T01:01:28.823Z,9.65
2022-09-30T01:04:03.468Z,9.82
2022-09-30T01:06:30.218Z,10.00
2022-09-30T01:08:58.653Z,9.45
2022-09-30T01:11:28.272Z,10.10
2022-09-30T01:13:58.970Z,10.23
2022-09-30T01:16:46.901Z,10.32
2022-09-30T01:19:36.637Z,9.35
2022-09-30T01:22:19.273Z,9.15
2022-09-30T01:25:17.838Z,8.82
2022-09-30T01:27:50.244Z,8.27
2022-09-30T01:30:26.583Z,8.15
2022-09-30T01:33:24.130Z,7.70
2022-09-30T01:36:25.975Z,7.07
2022-09-30T01:39:13.956Z,7.43
2022-09-30T01:42:04.483Z,7.45
2022-09-30T01:44:45.944Z,7.90
2022-09-30T01:47:29.515Z,10.02
2022-09-30T01:50:10.181Z,13.00
2022-09-30T01:52:44.808Z,11.13
2022-09-30T01:55:25.535Z,13.32
2022-09-30T01:58:14.434Z,14.35
2022-09-30T02:00:44.533Z,12.07
2022-09-30T02:03:27.794Z,11.27
2022-09-30T02:06:04.244Z,20.80
2022-09-30T02:08:51.254Z,12.98
2022-09-30T02:11:25.862Z,23.52
2022-09-30T02:13:55.370Z,14.35
2022-09-30T02:16:49.536Z,11.80
2022-09-30T02:19:23.281Z,10.48
2022-09-30T02:22:00.460Z,11.63
2022-09-30T02:24:32.159Z,11.77
2022-09-30T02:27:01.940Z,11.63
2022-09-30T02:29:34.883Z,12.20
2022-09-30T02:32:07.904Z,15.10
2022-09-30T02:34:43.443Z,13.43
2022-09-30T02:37:32.420Z,23.02
2022-09-30T02:40:35.876Z,18.30
2022-09-30T02:43:04.744Z,17.60
2022-09-30T02:45:43.128Z,17.40
2022-09-30T02:48:35.826Z,17.98
2022-09-30T02:51:10.316Z,17.83
2022-09-30T02:53:46.178Z,14.65
2022-09-30T02:56:24.261Z,15.00
2022-09-30T02:58:52.912Z,19.95
2022-09-30T03:01:20.193Z,14.65
2022-09-30T03:04:02.641Z,14.05
2022-09-30T03:06:29.459Z,12.18
2022-09-30T03:08:56.179Z,11.40
2022-09-30T03:11:25.109Z,11.57
2022-09-30T03:14:29.128Z,12.32
2022-09-30T03:17:20.453Z,11.73
2022-09-30T03:19:56.037Z,12.13
2022-09-30T03:22:25.364Z,13.00
2022-09-30T03:25:05.859Z,12.35
2022-09-30T03:27:37.367Z,13.77
2022-09-30T03:30:08.107Z,10.98
2022-09-30T03:33:04.462Z,11.32
2022-09-30T03:36:01.997Z,10.38
2022-09-30T03:38:39.941Z,10.18
2022-09-30T03:41:18.963Z,11.80
2022-09-30T03:43:45.432Z,12.20
2022-09-30T03:46:21.482Z,9.30
2022-09-30T03:48:51.691Z,10.93
2022-09-30T03:51:18.546Z,9.65
2022-09-30T03:53:46.676Z,8.57
2022-09-30T03:56:13.993Z,9.52
2022-09-30T03:58:44.337Z,10.73
2022-09-30T04:01:21.594Z,19.83
2022-09-30T04:03:52.993Z,18.50
2022-09-30T04:06:22.575Z,14.50
2022-09-30T04:08:50.354Z,21.33
2022-09-30T04:11:17.923Z,23.98
2022-09-30T04:13:44.461Z,16.48
2022-09-30T04:16:11.067Z,16.27
2022-09-30T04:18:39.104Z,33.63
2022-09-30T04:21:10.655Z,17.02
2022-09-30T04:23:38.733Z,22.17
2022-09-30T04:26:12.680Z,29.33
2022-09-30T04:28:40.092Z,37.65
2022-09-30T04:31:07.492Z,22.67
2022-09-30T04:33:34.379Z,19.40
2022-09-30T04:36:01.675Z,12.75
2022-09-30T04:38:29.179Z,15.48
2022-09-30T04:40:56.105Z,15.13
2022-09-30T04:43:23.614Z,11.77
2022-09-30T04:45:52.645Z,13.10
2022-09-30T04:48:19.706Z,16.42
2022-09-30T04:50:46.230Z,15.88
2022-09-30T04:53:14.826Z,15.23
2022-09-30T04:55:42.691Z,14.50
2022-09-30T04:58:09.459Z,9.00
2022-09-30T05:00:36.730Z,12.57
2022-09-30T05:03:03.634Z,11.95
2022-09-30T05:05:30.571Z,6.88
2022-09-30T05:08:01.694Z,6.50
2022-09-30T05:10:28.326Z,5.43
2022-09-30T05:12:55.067Z,4.18
2022-09-30T05:15:21.558Z,6.30
2022-09-30T05:17:51.601Z,6.53
2022-09-30T05:20:21.086Z,5.32
2022-09-30T05:22:48.324Z,3.80
2022-09-30T05:25:15.233Z,5.97
2022-09-30T05:27:41.781Z,9.10
2022-09-30T05:30:09.216Z,5.28
2022-09-30T05:32:35.784Z,5.85
2022-09-30T05:35:03.585Z,8.05
2022-09-30T05:37:30.441Z,5.95
2022-09-30T05:39:57.314Z,8.70
2022-09-30T05:42:23.876Z,7.63
2022-09-30T05:44:50.415Z,6.15
2022-09-30T05:47:17.324Z,5.05
2022-09-30T05:49:44.799Z,6.93
2022-09-30T05:52:13.497Z,5.95
2022-09-30T05:54:40.302Z,6.38
2022-09-30T05:57:08.030Z,9.77
2022-09-30T05:59:34.588Z,9.27
2022-09-30T06:02:01.543Z,6.70
2022-09-30T06:04:28.179Z,6.55
2022-09-30T06:06:54.696Z,5.47
2022-09-30T06:09:21.325Z,6.68
2022-09-30T06:11:48.056Z,6.07
2022-09-30T06:14:14.653Z,5.75
2022-09-30T06:16:41.268Z,6.45
2022-09-30T06:19:08.105Z,8.25
2022-09-30T06:21:34.616Z,8.90
2022-09-30T06:24:01.340Z,6.78
2022-09-30T06:26:27.893Z,9.57
2022-09-30T06:28:54.823Z,10.40
2022-09-30T06:31:21.576Z,13.40
2022-09-30T06:33:48.228Z,13.60
2022-09-30T06:36:15.212Z,14.82
2022-09-30T06:38:41.791Z,12.20
2022-09-30T06:41:08.870Z,14.40
2022-09-30T06:43:51.258Z,13.73
2022-09-30T06:46:26.323Z,14.25
2022-09-30T06:49:10.203Z,12.35
2022-09-30T06:51:39.838Z,20.45
2022-09-30T06:54:06.377Z,19.90
2022-09-30T06:56:32.872Z,16.35
2022-09-30T06:58:59.366Z,15.52
2022-09-30T07:01:27.934Z,15.43
2022-09-30T07:03:58.180Z,20.67
2022-09-30T07:06:28.759Z,13.90
2022-09-30T07:08:56.901Z,15.68
2022-09-30T07:11:24.799Z,18.30
2022-09-30T07:13:51.377Z,18.75
2022-09-30T07:16:19.779Z,31.25
2022-09-30T07:18:46.599Z,17.80
2022-09-30T07:21:16.073Z,18.02
2022-09-30T07:23:47.567Z,17.75
2022-09-30T07:26:19.441Z,12.23
2022-09-30T07:28:46.061Z,15.27
2022-09-30T07:31:34.699Z,18.27
2022-09-30T07:34:04.174Z,17.75
2022-09-30T07:36:33.621Z,19.63
2022-09-30T07:39:06.108Z,18.63
2022-09-30T07:41:36.525Z,15.15
2022-09-30T07:44:06.375Z,16.17
2022-09-30T07:46:36.275Z,16.20
2022-09-30T07:49:08.916Z,17.80
2022-09-30T07:51:40.664Z,18.95
2022-09-30T07:54:14.264Z,15.80
2022-09-30T07:57:08.153Z,20.60
2022-09-30T07:59:29.868Z,18.75
2022-09-30T08:01:56.784Z,22.83
2022-09-30T08:04:25.434Z,20.73
2022-09-30T08:06:55.913Z,17.33
2022-09-30T08:09:24.501Z,19.35
2022-09-30T08:11:51.261Z,10.65
2022-09-30T08:14:21.907Z,18.15
2022-09-30T08:16:49.170Z,27.92
2022-09-30T08:19:21.154Z,20.02
2022-09-30T08:21:48.338Z,14.52
2022-09-30T08:24:15.341Z,17.20
2022-09-30T08:26:42.752Z,14.82
2022-09-30T08:29:14.115Z,22.42
2022-09-30T08:31:43.678Z,27.80
2022-09-30T08:34:11.593Z,21.13
2022-09-30T08:36:38.271Z,22.38
2022-09-30T08:39:05.989Z,24.50
2022-09-30T08:42:08.750Z,23.38
2022-09-30T08:44:49.072Z,22.95
2022-09-30T08:47:41.942Z,24.92
2022-09-30T08:50:23.742Z,24.10
2022-09-30T08:52:54.596Z,27.30
2022-09-30T08:55:24.860Z,28.60
2022-09-30T08:57:53.624Z,23.90
2022-09-30T09:00:21.094Z,25.50
2022-09-30T09:02:58.843Z,22.92
2022-09-30T09:05:49.992Z,23.10
2022-09-30T09:08:34.881Z,23.27
2022-09-30T09:11:21.132Z,21.00
2022-09-30T09:13:57.682Z,21.30
2022-09-30T09:16:50.565Z,20.27
2022-09-30T09:19:25.095Z,20.33
2022-09-30T09:21:57.183Z,20.52
2022-09-30T09:24:30.313Z,21.17
2022-09-30T09:26:59.038Z,21.35
2022-09-30T09:29:40.815Z,22.42
2022-09-30T09:32:17.478Z,20.83
2022-09-30T09:34:46.192Z,23.27
2022-09-30T09:37:12.651Z,21.98
2022-09-30T09:39:54.483Z,22.77
2022-09-30T09:42:47.536Z,23.85
2022-09-30T09:45:26.276Z,23.17
2022-09-30T09:47:57.992Z,23.45
2022-09-30T09:50:56.995Z,21.05
2022-09-30T09:53:48.025Z,21.85
2022-09-30T09:56:22.351Z,21.42
2022-09-30T09:59:24.738Z,20.10
2022-09-30T10:04:23.670Z,20.65
2022-09-30T10:07:12.549Z,19.45
2022-09-30T10:09:41.386Z,17.92
2022-09-30T10:12:07.884Z,17.25
2022-09-30T10:14:45.941Z,17.83
2022-09-30T10:17:21.042Z,17.35
2022-09-30T10:19:51.905Z,17.38
2022-09-30T10:22:27.670Z,14.55
2022-09-30T10:25:10.972Z,15.25
2022-09-30T10:27:37.573Z,15.85
2022-09-30T10:30:04.540Z,16.38
2022-09-30T10:32:32.611Z,16.88
2022-09-30T10:35:22.707Z,18.45
2022-09-30T10:37:58.035Z,17.92
2022-09-30T10:40:28.471Z,17.77
2022-09-30T10:42:56.105Z,17.42
2022-09-30T10:46:01.496Z,18.35
2022-09-30T10:48:38.028Z,17.83
2022-09-30T10:51:07.123Z,18.60
2022-09-30T10:53:35.321Z,19.33
2022-09-30T10:56:05.293Z,20.80
2022-09-30T10:58:51.643Z,18.95
2022-09-30T11:01:30.589Z,19.67
2022-09-30T11:04:31.162Z,20.35
2022-09-30T11:07:26.698Z,20.00
2022-09-30T11:10:23.087Z,20.15
2022-09-30T11:12:49.945Z,19.92
2022-09-30T11:15:24.414Z,20.75
2022-09-30T11:17:54.967Z,21.63
2022-09-30T11:20:36.222Z,20.52
2022-09-30T11:23:24.642Z,18.75
2022-09-30T11:26:07.297Z,20.83
2022-09-30T11:29:05.181Z,19.63
2022-09-30T11:31:49.206Z,20.08
2022-09-30T11:34:27.788Z,21.45
2022-09-30T11:37:25.340Z,20.92
2022-09-30T11:40:13.801Z,19.27
2022-09-30T11:42:59.715Z,21.67
2022-09-30T11:45:46.036Z,21.08
2022-09-30T11:48:21.769Z,20.35
2022-09-30T11:51:11.135Z,16.98
2022-09-30T11:53:45.447Z,21.23
2022-09-30T11:56:46.248Z,20.55
2022-09-30T11:59:24.688Z,20.25
2022-09-30T12:01:56.861Z,16.95
2022-09-30T12:04:38.083Z,14.70
2022-09-30T12:07:14.886Z,16.23
2022-09-30T12:09:47.137Z,13.55
2022-09-30T12:12:17.045Z,10.40
2022-09-30T12:15:15.515Z,12.13
2022-09-30T12:17:48.513Z,10.63
2022-09-30T12:20:18.706Z,10.57
2022-09-30T12:22:47.687Z,10.57
2022-09-30T12:25:22.966Z,2.53
2022-09-30T12:28:23.781Z,2.17
2022-09-30T12:31:02.244Z,2.08
2022-09-30T12:33:59.133Z,1.67
2022-09-30T12:37:13.824Z,1.48
2022-09-30T12:39:55.261Z,1.70
2022-09-30T12:42:40.047Z,1.90
2022-09-30T12:45:18.546Z,1.42
2022-09-30T12:47:48.476Z,1.50
2022-09-30T12:50:19.406Z,1.08
2022-09-30T12:52:46.501Z,1.48
2022-09-30T12:55:25.423Z,1.35
2022-09-30T12:57:53.281Z,1.38
2022-09-30T13:00:23.174Z,1.40
2022-09-30T13:02:56.682Z,1.10
2022-09-30T13:05:32.535Z,1.08
2022-09-30T13:08:11.355Z,1.27
2022-09-30T13:10:37.814Z,1.30
2022-09-30T13:13:10.468Z,1.27
2022-09-30T13:15:37.057Z,1.15
2022-09-30T13:18:28.078Z,1.17
2022-09-30T13:21:08.438Z,1.10
2022-09-30T13:23:40.999Z,1.10
2022-09-30T13:26:27.993Z,1.25
2022-09-30T13:29:14.651Z,1.58
2022-09-30T13:31:50.490Z,1.27
2022-09-30T13:34:31.214Z,1.30
2022-09-30T13:37:02.199Z,1.30
2022-09-30T13:39:47.800Z,1.42
2022-09-30T13:42:14.334Z,1.27
2022-09-30T13:44:57.633Z,1.23
2022-09-30T13:47:30.390Z,1.70
2022-09-30T13:50:06.297Z,1.60
2022-09-30T13:52:35.494Z,1.50
2022-09-30T13:55:25.843Z,1.17
2022-09-30T13:58:28.197Z,1.27
2022-09-30T14:04:23.305Z,1.13
2022-09-30T14:06:55.713Z,1.35
2022-09-30T14:09:34.527Z,1.20
2022-09-30T14:12:04.213Z,1.10
2022-09-30T14:14:55.449Z,1.38
2022-09-30T14:17:50.141Z,1.40
2022-09-30T14:20:54.344Z,1.13
2022-09-30T14:23:21.622Z,0.90
2022-09-30T14:26:10.937Z,1.00
2022-09-30T14:29:03.866Z,1.02
2022-09-30T14:31:33.999Z,0.85
2022-09-30T14:34:00.723Z,1.00
2022-09-30T14:36:27.455Z,0.90
2022-09-30T14:38:59.564Z,0.90
2022-09-30T14:41:28.283Z,1.10
2022-09-30T14:43:59.356Z,1.02
2022-09-30T14:46:38.903Z,1.08
2022-09-30T14:49:09.542Z,1.00
2022-09-30T14:51:43.390Z,1.00
2022-09-30T14:54:26.619Z,1.00
2022-09-30T14:56:56.034Z,0.90
2022-09-30T14:59:28.059Z,1.30
2022-09-30T15:02:00.771Z,1.10
2022-09-30T15:04:39.923Z,1.38
2022-09-30T15:07:11.375Z,1.30
2022-09-30T15:09:46.509Z,1.27
2022-09-30T15:12:14.280Z,1.10
2022-09-30T15:14:49.987Z,1.10
2022-09-30T15:17:21.993Z,1.23
2022-09-30T15:19:50.402Z,1.17
2022-09-30T15:22:18.988Z,1.15
2022-09-30T15:24:47.505Z,1.05
2022-09-30T15:27:35.414Z,1.05
2022-09-30T15:30:22.474Z,1.00
2022-09-30T15:32:56.738Z,1.38
2022-09-30T15:35:24.040Z,0.80
2022-09-30T15:37:52.313Z,1.15
2022-09-30T15:40:43.065Z,1.10
2022-09-30T15:43:15.559Z,1.27
2022-09-30T15:45:50.504Z,1.20
2022-09-30T15:48:46.111Z,1.30
2022-09-30T15:51:37.427Z,1.00
2022-09-30T15:54:32.048Z,1.40
2022-09-30T15:57:00.919Z,1.50
2022-09-30T15:59:58.461Z,1.50
2022-09-30T16:02:25.391Z,1.65
2022-09-30T16:04:53.171Z,1.20
2022-09-30T16:07:26.407Z,1.20
2022-09-30T16:09:53.218Z,1.70
2022-09-30T16:12:24.455Z,1.92
2022-09-30T16:14:52.810Z,1.90
2022-09-30T16:17:24.557Z,1.42
2022-09-30T16:19:58.001Z,1.38
2022-09-30T16:22:59.302Z,1.20
2022-09-30T16:25:30.659Z,1.23
2022-09-30T16:28:14.346Z,1.70
2022-09-30T16:30:47.597Z,2.80
2022-09-30T16:33:15.761Z,1.92
2022-09-30T16:35:44.358Z,1.52
2022-09-30T16:38:13.918Z,1.80
2022-09-30T16:40:40.848Z,2.58
2022-09-30T16:43:11.752Z,2.03
2022-09-30T16:45:40.385Z,2.20
2022-09-30T16:48:15.346Z,1.48
2022-09-30T16:50:45.689Z,1.25
2022-09-30T16:53:12.267Z,1.90
2022-09-30T16:55:38.767Z,1.60
2022-09-30T16:58:05.462Z,1.70
2022-09-30T17:00:32.495Z,1.75
2022-09-30T17:02:59.223Z,1.88
2022-09-30T17:05:26.872Z,1.40
2022-09-30T17:07:59.343Z,1.55
2022-09-30T17:10:31.038Z,1.75
2022-09-30T17:13:02.414Z,1.48
2022-09-30T17:15:31.495Z,1.65
2022-09-30T17:17:59.011Z,1.50
2022-09-30T17:20:26.646Z,1.45
2022-09-30T17:22:53.298Z,1.50
2022-09-30T17:25:19.973Z,1.60
2022-09-30T17:27:52.804Z,1.33
2022-09-30T17:30:20.030Z,1.95
2022-09-30T17:32:46.930Z,1.70
2022-09-30T17:35:13.768Z,1.45
2022-09-30T17:37:43.832Z,1.20
2022-09-30T17:40:31.163Z,1.40
2022-09-30T17:43:12.968Z,1.20
2022-09-30T17:45:46.121Z,1.38
2022-09-30T17:48:14.535Z,1.00
2022-09-30T17:50:44.275Z,1.20
2022-09-30T17:53:14.367Z,1.40
2022-09-30T17:55:41.688Z,1.20
2022-09-30T17:58:09.334Z,1.35
2022-09-30T18:00:36.517Z,1.48
2022-09-30T18:03:03.967Z,1.42
2022-09-30T18:05:33.060Z,1.50
2022-09-30T18:07:59.937Z,1.40
2022-09-30T18:10:27.670Z,1.38
2022-09-30T18:12:55.200Z,1.30
2022-09-30T18:15:23.329Z,1.27
2022-09-30T18:17:50.237Z,1.23
2022-09-30T18:20:17.860Z,1.67
2022-09-30T18:22:46.222Z,1.38
2022-09-30T18:25:22.736Z,1.17
2022-09-30T18:27:56.462Z,1.35
2022-09-30T18:30:24.215Z,1.45
2022-09-30T18:32:52.785Z,1.60
2022-09-30T18:35:21.919Z,1.50
2022-09-30T18:37:52.283Z,1.50
2022-09-30T18:40:25.861Z,1.23
2022-09-30T18:42:58.368Z,1.10
2022-09-30T18:45:35.777Z,1.10
2022-09-30T18:48:02.534Z,1.27
2022-09-30T18:50:30.407Z,1.10
2022-09-30T18:52:57.945Z,1.33
2022-09-30T18:55:25.170Z,1.70
2022-09-30T18:57:56.142Z,1.50
2022-09-30T19:00:22.925Z,1.25
2022-09-30T19:02:52.095Z,1.90
2022-09-30T19:05:18.891Z,1.63
2022-09-30T19:07:45.398Z,1.80
2022-09-30T19:10:13.293Z,1.45
2022-09-30T19:12:40.634Z,1.50
2022-09-30T19:15:12.084Z,1.25
2022-09-30T19:17:38.670Z,1.33
2022-09-30T19:20:06.687Z,1.50
2022-09-30T19:22:37.273Z,1.20
2022-09-30T19:25:11.754Z,1.17
2022-09-30T19:27:40.933Z,1.35
2022-09-30T19:30:10.271Z,1.35
2022-09-30T19:32:37.138Z,1.23
2022-09-30T19:35:06.798Z,1.30
2022-09-30T19:37:34.603Z,1.40
2022-09-30T19:40:10.743Z,1.20
2022-09-30T19:42:43.028Z,1.40
2022-09-30T19:45:09.569Z,1.23
2022-09-30T19:47:38.009Z,1.70
2022-09-30T19:50:05.615Z,1.50
2022-09-30T19:52:34.423Z,1.63
2022-09-30T19:55:13.034Z,1.65
2022-09-30T19:57:42.694Z,1.40
2022-09-30T20:00:12.654Z,1.77
2022-09-30T20:02:39.306Z,1.80
2022-09-30T20:05:06.516Z,1.80
2022-09-30T20:07:33.076Z,1.35
2022-09-30T20:10:01.008Z,1.50
2022-09-30T20:12:28.966Z,1.65
2022-09-30T20:15:14.371Z,1.60
2022-09-30T20:17:40.892Z,1.67
2022-09-30T20:20:26.382Z,1.95
2022-09-30T20:22:53.320Z,2.00
2022-09-30T20:25:20.367Z,2.00
2022-09-30T20:27:51.876Z,1.50
2022-09-30T20:30:18.878Z,1.70
2022-09-30T20:32:45.398Z,1.90
2022-09-30T20:35:12.041Z,1.80
2022-09-30T20:37:40.875Z,1.60
2022-09-30T20:40:09.454Z,1.90
2022-09-30T20:42:38.473Z,1.60
2022-09-30T20:45:10.164Z,2.75
2022-09-30T20:47:37.794Z,2.22
2022-09-30T20:50:06.081Z,1.88
2022-09-30T20:52:32.627Z,2.00
2022-09-30T20:55:00.447Z,1.80
2022-09-30T20:57:31.711Z,1.90
2022-09-30T20:59:59.971Z,1.88
2022-09-30T21:02:27.992Z,1.85
2022-09-30T21:04:57.772Z,1.73
2022-09-30T21:07:25.338Z,1.83
2022-09-30T21:09:52.564Z,1.80
2022-09-30T21:12:19.370Z,1.85
2022-09-30T21:14:45.932Z,1.95
2022-09-30T21:17:12.510Z,2.03
2022-09-30T21:19:39.218Z,1.80
2022-09-30T21:22:05.748Z,2.08
2022-09-30T21:24:32.278Z,2.10
2022-09-30T21:26:59.064Z,2.20
2022-09-30T21:29:25.640Z,1.80
2022-09-30T21:31:52.189Z,2.22
2022-09-30T21:34:18.896Z,1.80
2022-09-30T21:36:46.358Z,1.88
2022-09-30T21:39:12.933Z,1.90
2022-09-30T21:41:40.840Z,2.10
2022-09-30T21:44:07.553Z,2.50
2022-09-30T21:46:35.690Z,1.95
2022-09-30T21:49:19.970Z,2.15
2022-09-30T21:51:47.058Z,1.95
2022-09-30T21:54:14.581Z,1.90
2022-09-30T21:56:42.912Z,1.77
2022-09-30T21:59:10.440Z,2.03
2022-09-30T22:01:37.513Z,1.90
2022-09-30T22:04:04.866Z,2.05
2022-09-30T22:06:31.602Z,2.10
2022-09-30T22:09:01.238Z,1.73
2022-09-30T22:11:29.195Z,1.85
2022-09-30T22:13:57.694Z,2.03
2022-09-30T22:16:27.355Z,1.55
2022-09-30T22:18:55.215Z,1.90
2022-09-30T22:21:22.063Z,2.08
2022-09-30T22:23:49.553Z,1.90
2022-09-30T22:26:19.167Z,2.28
2022-09-30T22:28:46.850Z,1.95
2022-09-30T22:31:21.505Z,1.83
2022-09-30T22:34:09.610Z,1.80
2022-09-30T22:36:54.983Z,1.70
2022-09-30T22:39:22.347Z,2.10
2022-09-30T22:41:50.303Z,1.70
2022-09-30T22:44:17.862Z,1.60
2022-09-30T22:46:44.892Z,2.03
2022-09-30T22:49:11.826Z,1.73
2022-09-30T22:51:38.966Z,1.80
2022-09-30T22:54:05.989Z,2.20
2022-09-30T22:56:32.550Z,1.80
2022-09-30T22:58:59.603Z,1.80
2022-09-30T23:01:29.261Z,1.92
2022-09-30T23:03:56.066Z,1.65
2022-09-30T23:06:24.372Z,1.73
2022-09-30T23:08:52.662Z,1.50
2022-09-30T23:11:19.411Z,1.70
2022-09-30T23:13:46.458Z,1.63
2022-09-30T23:16:14.196Z,1.63
2022-09-30T23:18:41.019Z,1.40
2022-09-30T23:21:10.657Z,1.50
2022-09-30T23:23:38.803Z,1.77
2022-09-30T23:26:06.812Z,1.40
2022-09-30T23:28:33.399Z,1.35
2022-09-30T23:31:09.372Z,1.30
2022-09-30T23:33:37.812Z,1.05
2022-09-30T23:36:06.356Z,1.50
2022-09-30T23:38:33.338Z,1.55
2022-09-30T23:41:00.268Z,1.10
2022-09-30T23:43:31.251Z,1.35
2022-09-30T23:46:01.747Z,1.20
2022-09-30T23:48:28.700Z,1.45
2022-09-30T23:50:55.338Z,1.40
2022-09-30T23:53:23.228Z,1.30
2022-09-30T23:56:13.038Z,1.42
2022-09-30T23:58:40.233Z,1.10
